Time;durP1;ratioP1;P1;durP2;ratioP2;P2;SDS_P1;SDS_P2;PMS_P1;PMS_P2;Temp;Humidity;BMP_temperature;BMP_pressure;BME280_temperature;BME280_humidity;BME280_pressure;Samples;Min_cycle;Max_cycle;Signal;HPM_P1;HPM_P2
2022/06/25 00:01:52;;;;;;;10.98;3.90;;;20.50;99.90;;;;;;5065083;28;20022;-57
2022/06/25 00:07:03;;;;;;;8.45;3.92;;;20.40;99.90;;;;;;5074408;28;20064;-56
2022/06/25 00:09:28;;;;;;;6.50;3.13;;;20.40;99.90;;;;;;5076990;28;20058;-55
2022/06/25 00:14:39;;;;;;;7.70;3.88;;;20.40;99.90;;;;;;5098140;28;20114;-56
2022/06/25 00:17:05;;;;;;;8.43;3.47;;;20.20;99.90;;;;;;5063871;28;20064;-56
2022/06/25 00:19:31;;;;;;;6.05;4.07;;;20.10;99.90;;;;;;5071126;28;20022;-55
2022/06/25 00:21:56;;;;;;;7.82;3.63;;;20.10;99.90;;;;;;5068249;28;20021;-56
2022/06/25 00:24:22;;;;;;;6.82;3.35;;;20.10;99.90;;;;;;5064322;28;20024;-56
2022/06/25 00:26:48;;;;;;;6.30;3.35;;;20.00;99.90;;;;;;5080206;28;20023;-55
2022/06/25 00:29:14;;;;;;;6.63;3.63;;;20.00;99.90;;;;;;5080546;27;20017;-56
2022/06/25 00:31:40;;;;;;;6.97;4.13;;;20.00;99.90;;;;;;5134470;27;20069;-56
2022/06/25 00:34:06;;;;;;;5.68;3.20;;;19.90;99.90;;;;;;5133972;27;20023;-56
2022/06/25 00:36:32;;;;;;;4.90;3.55;;;19.80;99.90;;;;;;5134445;27;20447;-56
2022/06/25 00:38:58;;;;;;;6.10;3.15;;;19.80;99.90;;;;;;5134545;27;20039;-56
2022/06/25 00:41:24;;;;;;;7.97;3.75;;;19.80;99.90;;;;;;5134577;27;20050;-56
2022/06/25 00:43:50;;;;;;;7.35;3.70;;;19.70;99.90;;;;;;5134503;27;20203;-56
2022/06/25 00:46:15;;;;;;;6.30;3.88;;;19.60;99.90;;;;;;5134450;27;20514;-56
2022/06/25 00:48:41;;;;;;;7.43;3.42;;;19.50;99.90;;;;;;5095776;27;20093;-56
2022/06/25 00:51:12;;;;;;;6.07;4.07;;;19.20;99.90;;;;;;5085231;27;20049;-56
2022/06/25 00:53:41;;;;;;;9.73;3.97;;;19.00;99.90;;;;;;5082731;27;20021;-57
2022/06/25 00:56:09;;;;;;;7.07;3.42;;;19.00;99.90;;;;;;5084885;27;20029;-56
2022/06/25 00:58:39;;;;;;;9.93;4.28;;;19.00;99.90;;;;;;5084480;27;20068;-56
2022/06/25 01:01:08;;;;;;;7.35;3.47;;;19.10;99.90;;;;;;5081771;27;20094;-56
2022/06/25 01:03:34;;;;;;;7.10;3.90;;;19.00;99.90;;;;;;5075934;27;20015;-55
2022/06/25 01:06:00;;;;;;;7.03;3.60;;;18.90;99.90;;;;;;5092573;27;20024;-55
2022/06/25 01:08:25;;;;;;;8.40;4.05;;;18.90;99.90;;;;;;5071889;28;20026;-56
2022/06/25 01:10:51;;;;;;;7.43;3.85;;;18.90;99.90;;;;;;5066112;28;20029;-55
2022/06/25 01:13:21;;;;;;;11.93;3.40;;;18.80;99.90;;;;;;5074335;28;20031;-56
2022/06/25 01:15:47;;;;;;;10.40;4.35;;;18.80;99.90;;;;;;5107948;28;20024;-55
2022/06/25 01:18:13;;;;;;;8.07;4.10;;;18.80;99.90;;;;;;5113158;28;20024;-56
2022/06/25 01:20:38;;;;;;;8.65;4.38;;;18.90;99.90;;;;;;5113241;28;20561;-56
2022/06/25 01:23:04;;;;;;;7.25;3.80;;;19.00;99.90;;;;;;5113293;28;20031;-56
2022/06/25 01:25:37;;;;;;;8.43;3.45;;;18.80;99.90;;;;;;5113323;28;20028;-56
2022/06/25 01:28:04;;;;;;;8.45;3.53;;;18.90;99.90;;;;;;5112922;28;20028;-56
2022/06/25 01:30:31;;;;;;;10.38;3.88;;;19.00;99.90;;;;;;5112945;28;20122;-55
2022/06/25 01:32:56;;;;;;;9.90;4.25;;;19.10;99.90;;;;;;5094489;28;20023;-55
2022/06/25 01:35:22;;;;;;;7.65;3.85;;;19.10;99.90;;;;;;5112968;28;20039;-55
2022/06/25 01:37:48;;;;;;;7.15;4.10;;;19.20;99.90;;;;;;5112685;28;20075;-55
2022/06/25 01:40:15;;;;;;;6.88;3.88;;;19.30;99.90;;;;;;5111792;28;20551;-56
2022/06/25 01:42:58;;;;;;;6.60;3.45;;;19.30;99.90;;;;;;5112989;28;20024;-56
2022/06/25 01:45:28;;;;;;;8.25;4.57;;;19.20;99.90;;;;;;5113028;28;20118;-56
2022/06/25 01:47:54;;;;;;;8.45;4.10;;;19.30;99.90;;;;;;5112641;28;20487;-56
2022/06/25 01:50:20;;;;;;;9.60;4.63;;;19.40;99.90;;;;;;5112669;28;20031;-56
2022/06/25 01:52:46;;;;;;;10.38;4.13;;;19.50;99.90;;;;;;5112518;28;20027;-55
2022/06/25 01:55:13;;;;;;;6.60;4.53;;;19.50;99.90;;;;;;5112462;28;20019;-55
2022/06/25 01:57:38;;;;;;;8.87;4.10;;;19.50;99.90;;;;;;5112617;28;20031;-55
2022/06/25 02:00:14;;;;;;;8.40;4.03;;;19.60;99.90;;;;;;5112450;28;20020;-56
2022/06/25 02:02:41;;;;;;;9.18;4.15;;;19.60;99.90;;;;;;5111557;28;20363;-55
2022/06/25 02:05:07;;;;;;;8.75;4.20;;;19.50;99.90;;;;;;5112295;28;20035;-56
2022/06/25 02:07:33;;;;;;;12.55;3.97;;;19.40;99.90;;;;;;5112106;28;20043;-56
2022/06/25 02:09:59;;;;;;;9.85;4.18;;;19.30;99.90;;;;;;5112041;28;20470;-55
2022/06/25 02:12:25;;;;;;;9.82;4.22;;;19.30;99.90;;;;;;5112116;28;20042;-56
2022/06/25 02:14:51;;;;;;;8.40;4.30;;;19.30;99.90;;;;;;5093783;28;20019;-57
2022/06/25 02:17:17;;;;;;;10.05;3.85;;;19.40;99.90;;;;;;5112125;28;20545;-55
2022/06/25 02:19:42;;;;;;;12.18;4.57;;;19.30;99.90;;;;;;5112127;28;20111;-56
2022/06/25 02:22:14;;;;;;;10.20;4.38;;;19.30;99.90;;;;;;5111806;28;20016;-56
2022/06/25 02:24:41;;;;;;;11.90;4.68;;;19.30;99.90;;;;;;5112209;28;20031;-55
2022/06/25 02:27:06;;;;;;;10.43;4.63;;;19.30;99.90;;;;;;5111982;28;20027;-56
2022/06/25 02:29:32;;;;;;;9.65;4.00;;;19.30;99.90;;;;;;5093405;28;20035;-55
2022/06/25 02:31:59;;;;;;;11.38;4.65;;;19.30;99.90;;;;;;5111696;28;20093;-55
2022/06/25 02:34:24;;;;;;;8.63;4.23;;;19.30;99.90;;;;;;5111688;28;20020;-56
2022/06/25 02:36:50;;;;;;;6.70;4.10;;;19.20;99.90;;;;;;5111610;28;20084;-55
2022/06/25 02:39:17;;;;;;;6.65;3.90;;;19.30;99.90;;;;;;5111986;28;20114;-55
2022/06/25 02:41:44;;;;;;;6.70;3.67;;;19.40;99.90;;;;;;5111592;28;20650;-55
2022/06/25 02:44:09;;;;;;;7.70;3.93;;;19.40;99.90;;;;;;5111629;28;20023;-55
2022/06/25 02:46:35;;;;;;;6.70;3.75;;;19.30;99.90;;;;;;5111485;28;20470;-56
2022/06/25 02:49:01;;;;;;;9.05;4.63;;;19.30;99.90;;;;;;5110825;28;20028;-55
2022/06/25 02:51:27;;;;;;;10.38;5.50;;;19.40;99.90;;;;;;5111374;28;20432;-56
2022/06/25 02:53:55;;;;;;;12.57;3.87;;;19.50;99.90;;;;;;5111476;28;20556;-56
2022/06/25 02:59:06;;;;;;;8.13;3.88;;;19.60;99.90;;;;;;5111811;28;20383;-55
2022/06/25 03:01:32;;;;;;;6.97;4.20;;;19.70;99.90;;;;;;5111348;28;20027;-55
2022/06/25 03:03:58;;;;;;;7.05;4.40;;;19.60;99.90;;;;;;5111153;28;20478;-55
2022/06/25 03:06:24;;;;;;;8.85;4.47;;;19.60;99.90;;;;;;5111707;28;20028;-56
2022/06/25 03:08:50;;;;;;;9.20;4.07;;;19.60;99.90;;;;;;5111418;28;20028;-55
2022/06/25 03:11:17;;;;;;;6.97;3.80;;;19.60;99.90;;;;;;5111022;28;20042;-55
2022/06/25 03:13:42;;;;;;;7.45;4.05;;;19.70;99.90;;;;;;5111285;28;20077;-56
2022/06/25 03:16:09;;;;;;;8.25;4.15;;;19.70;99.90;;;;;;5111317;28;20023;-55
2022/06/25 03:18:36;;;;;;;9.43;4.03;;;19.60;99.90;;;;;;5111359;28;20024;-55
2022/06/25 03:21:02;;;;;;;13.95;3.90;;;19.50;99.90;;;;;;5111086;28;20035;-55
2022/06/25 03:23:28;;;;;;;9.25;4.82;;;19.30;99.90;;;;;;5111015;28;20035;-56
2022/06/25 03:25:54;;;;;;;13.02;4.45;;;19.30;99.90;;;;;;5111239;28;20034;-55
2022/06/25 03:28:20;;;;;;;7.30;3.72;;;19.30;99.90;;;;;;5111013;28;20024;-55
2022/06/25 03:30:46;;;;;;;9.57;3.78;;;19.30;99.90;;;;;;5110806;28;20032;-55
2022/06/25 03:33:13;;;;;;;8.75;4.22;;;19.30;99.90;;;;;;5110868;28;20077;-56
2022/06/25 03:35:39;;;;;;;9.57;4.85;;;19.30;99.90;;;;;;5092660;28;20122;-56
2022/06/25 03:38:05;;;;;;;8.38;4.28;;;19.40;99.90;;;;;;5110745;28;20052;-56
2022/06/25 03:40:31;;;;;;;7.90;4.05;;;19.40;99.90;;;;;;5110921;28;20080;-56
2022/06/25 03:42:58;;;;;;;8.48;4.63;;;19.50;99.90;;;;;;5110873;28;20023;-55
2022/06/25 03:45:24;;;;;;;8.88;5.07;;;19.50;99.90;;;;;;5110734;28;20020;-56
2022/06/25 03:47:50;;;;;;;8.43;5.45;;;19.50;99.90;;;;;;5110867;28;20039;-56
2022/06/25 03:50:20;;;;;;;8.52;4.65;;;19.60;99.90;;;;;;5110690;28;20024;-56
2022/06/25 03:52:47;;;;;;;9.82;4.22;;;19.60;99.90;;;;;;5110953;28;20031;-56
2022/06/25 03:55:14;;;;;;;7.22;4.57;;;19.60;99.90;;;;;;5111049;28;20103;-56
2022/06/25 03:57:39;;;;;;;8.48;4.40;;;19.60;99.90;;;;;;5110704;28;20539;-57
2022/06/25 04:00:06;;;;;;;6.82;4.32;;;19.70;99.90;;;;;;5110781;28;20106;-56
2022/06/25 04:02:33;;;;;;;8.68;4.30;;;19.70;99.90;;;;;;5110618;28;20032;-55
2022/06/25 04:04:59;;;;;;;9.50;4.57;;;19.80;99.90;;;;;;5114789;28;20039;-56
2022/06/25 04:07:24;;;;;;;9.63;5.38;;;19.90;99.90;;;;;;5114899;28;20023;-56
2022/06/25 04:09:50;;;;;;;7.78;4.55;;;19.90;99.90;;;;;;5114801;28;20028;-55
2022/06/25 04:12:16;;;;;;;10.98;5.25;;;19.90;99.90;;;;;;5114467;28;20111;-55
2022/06/25 04:14:42;;;;;;;11.32;5.30;;;19.90;99.90;;;;;;5114361;28;20019;-56
2022/06/25 04:17:07;;;;;;;13.73;5.18;;;19.80;99.90;;;;;;5114438;28;20087;-56
2022/06/25 04:19:40;;;;;;;7.82;4.15;;;19.90;99.90;;;;;;5114280;28;20019;-55
2022/06/25 04:22:12;;;;;;;7.68;4.88;;;19.90;99.90;;;;;;5113906;28;20016;-55
2022/06/25 04:24:39;;;;;;;11.43;5.10;;;19.90;99.90;;;;;;5114204;28;20069;-55
2022/06/25 04:27:05;;;;;;;10.38;4.35;;;20.00;99.90;;;;;;5114275;28;20371;-58
2022/06/25 04:29:31;;;;;;;5.75;4.15;;;19.90;99.90;;;;;;5114349;28;20043;-54
2022/06/25 04:31:57;;;;;;;8.90;4.57;;;19.80;99.90;;;;;;5114251;28;20486;-55
2022/06/25 04:34:24;;;;;;;9.25;4.65;;;19.70;99.90;;;;;;5114353;28;20054;-55
2022/06/25 04:36:50;;;;;;;8.88;4.70;;;19.60;99.90;;;;;;5113928;28;20073;-55
2022/06/25 04:39:16;;;;;;;8.30;4.47;;;19.70;99.90;;;;;;5113962;28;20076;-54
2022/06/25 04:41:42;;;;;;;8.88;4.13;;;19.70;99.90;;;;;;5114034;28;20030;-55
2022/06/25 04:44:08;;;;;;;8.55;4.57;;;19.60;99.90;;;;;;5113742;28;20035;-55
2022/06/25 04:46:34;;;;;;;11.00;5.57;;;19.70;99.90;;;;;;5090689;28;20044;-56
2022/06/25 04:48:59;;;;;;;8.60;5.13;;;19.60;99.90;;;;;;5098540;28;20429;-56
2022/06/25 04:51:26;;;;;;;11.48;5.43;;;19.70;99.90;;;;;;5030419;28;20037;-55
2022/06/25 04:53:55;;;;;;;7.18;4.60;;;19.70;99.90;;;;;;5030575;27;20025;-55
2022/06/25 04:56:28;;;;;;;8.95;5.00;;;19.70;99.90;;;;;;5029876;28;20033;-56
2022/06/25 04:58:56;;;;;;;10.07;4.97;;;19.80;99.90;;;;;;5098523;28;20627;-55
2022/06/25 05:01:23;;;;;;;10.68;5.60;;;19.90;99.90;;;;;;5029993;28;20029;-55
2022/06/25 05:03:49;;;;;;;9.30;4.60;;;20.00;99.90;;;;;;5030048;28;20112;-54
2022/06/25 05:06:15;;;;;;;11.80;5.18;;;20.00;99.90;;;;;;5029871;28;20125;-55
2022/06/25 05:08:41;;;;;;;10.20;4.60;;;20.20;99.90;;;;;;5098106;28;20029;-55
2022/06/25 05:11:07;;;;;;;10.27;4.70;;;20.20;99.90;;;;;;5029769;28;20540;-56
2022/06/25 05:13:32;;;;;;;9.80;4.90;;;20.30;99.90;;;;;;5029893;28;20113;-56
2022/06/25 05:15:58;;;;;;;9.30;5.03;;;20.30;99.90;;;;;;5098105;28;20025;-56
2022/06/25 05:18:24;;;;;;;8.85;5.10;;;20.40;99.90;;;;;;5029593;28;20033;-55
2022/06/25 05:20:50;;;;;;;12.48;5.25;;;20.40;99.90;;;;;;5030002;28;20064;-55
2022/06/25 05:23:16;;;;;;;9.95;4.85;;;20.40;99.90;;;;;;5029653;28;20129;-55
2022/06/25 05:25:43;;;;;;;14.57;4.72;;;20.50;99.90;;;;;;5096914;28;20102;-55
2022/06/25 05:28:09;;;;;;;10.57;5.82;;;20.50;99.90;;;;;;5029458;28;20034;-57
2022/06/25 05:30:35;;;;;;;11.20;4.70;;;20.60;99.90;;;;;;5097834;28;20078;-56
2022/06/25 05:33:00;;;;;;;7.63;4.47;;;20.60;99.90;;;;;;5029053;28;20037;-56
2022/06/25 05:35:26;;;;;;;10.05;5.25;;;20.70;99.90;;;;;;5097680;28;20026;-56
2022/06/25 05:37:52;;;;;;;11.23;5.07;;;20.80;99.90;;;;;;5029438;27;20053;-56
2022/06/25 05:40:18;;;;;;;9.68;5.25;;;20.90;99.90;;;;;;5029699;28;20517;-56
2022/06/25 05:42:44;;;;;;;8.95;4.28;;;21.10;99.90;;;;;;5029700;28;20484;-56
2022/06/25 05:45:10;;;;;;;9.32;5.32;;;21.10;99.90;;;;;;5029590;28;20391;-55
2022/06/25 05:47:36;;;;;;;10.43;4.50;;;21.20;99.90;;;;;;5029736;28;20029;-56
2022/06/25 05:50:02;;;;;;;12.05;4.90;;;21.30;99.90;;;;;;5039376;28;20356;-56
2022/06/25 05:52:28;;;;;;;9.95;4.75;;;21.40;99.90;;;;;;5087438;27;20051;-56
2022/06/25 05:54:53;;;;;;;9.98;4.53;;;21.40;99.90;;;;;;5079616;27;20102;-56
2022/06/25 05:57:19;;;;;;;7.88;4.68;;;21.40;99.90;;;;;;5077262;27;20026;-57
2022/06/25 05:59:45;;;;;;;9.13;4.85;;;21.50;99.90;;;;;;5076512;27;20479;-55
2022/06/25 06:02:11;;;;;;;15.05;4.47;;;21.60;99.90;;;;;;5062743;28;20047;-56
2022/06/25 06:04:37;;;;;;;13.07;5.00;;;21.70;99.90;;;;;;5067490;28;20112;-57
2022/06/25 06:07:04;;;;;;;9.73;4.63;;;21.80;99.90;;;;;;5068254;28;20539;-57
2022/06/25 06:09:31;;;;;;;14.80;5.40;;;21.90;99.90;;;;;;5073951;28;20452;-56
2022/06/25 06:11:58;;;;;;;10.63;5.72;;;22.00;99.90;;;;;;5050825;28;20306;-55
2022/06/25 06:14:24;;;;;;;9.83;4.67;;;22.10;99.90;;;;;;5097218;28;20078;-56
2022/06/25 06:16:49;;;;;;;8.27;4.72;;;22.20;99.90;;;;;;5096860;28;20033;-56
2022/06/25 06:19:15;;;;;;;9.93;4.95;;;22.40;99.90;;;;;;5028649;28;20029;-54
2022/06/25 06:21:41;;;;;;;8.95;4.57;;;22.40;99.90;;;;;;5029185;28;20021;-54
2022/06/25 06:24:07;;;;;;;10.88;4.72;;;22.40;99.90;;;;;;5028876;28;20404;-54
2022/06/25 06:26:33;;;;;;;6.20;4.07;;;22.50;99.90;;;;;;5026242;28;20493;-53
2022/06/25 06:28:59;;;;;;;9.57;4.47;;;22.50;99.90;;;;;;5033566;27;20029;-53
2022/06/25 06:31:25;;;;;;;10.90;4.70;;;22.60;99.90;;;;;;5028765;28;20715;-56
2022/06/25 06:33:50;;;;;;;13.52;4.80;;;22.60;99.90;;;;;;5028372;28;20035;-59
2022/06/25 06:36:16;;;;;;;9.63;4.88;;;22.80;99.90;;;;;;5029023;28;20078;-57
2022/06/25 06:38:42;;;;;;;9.15;5.50;;;23.00;99.90;;;;;;5028435;28;20046;-58
2022/06/25 06:41:08;;;;;;;9.07;5.05;;;23.20;99.90;;;;;;5028542;28;20529;-57
2022/06/25 06:43:33;;;;;;;8.50;4.28;;;23.60;99.90;;;;;;5096609;28;20117;-57
2022/06/25 06:45:59;;;;;;;7.40;4.13;;;23.50;99.90;;;;;;5028457;28;20033;-56
2022/06/25 06:48:25;;;;;;;12.10;4.88;;;23.40;99.40;;;;;;5028479;28;20038;-55
2022/06/25 06:50:51;;;;;;;6.65;4.18;;;23.30;99.00;;;;;;5061000;28;20092;-57
2022/06/25 06:53:16;;;;;;;8.88;4.50;;;23.30;97.20;;;;;;5111639;28;20023;-57
2022/06/25 06:55:42;;;;;;;8.45;4.65;;;23.30;95.80;;;;;;5111529;28;20032;-57
2022/06/25 06:58:08;;;;;;;6.93;4.07;;;23.30;94.50;;;;;;5111660;28;20059;-57
2022/06/25 07:00:33;;;;;;;5.82;3.70;;;23.30;91.80;;;;;;5111674;28;20019;-56
2022/06/25 07:02:59;;;;;;;5.30;3.88;;;23.30;92.00;;;;;;5111279;28;20031;-57
2022/06/25 07:05:25;;;;;;;7.25;4.07;;;23.30;91.60;;;;;;5111662;28;20024;-56
2022/06/25 07:07:50;;;;;;;8.27;3.78;;;23.30;92.30;;;;;;5111578;28;20031;-56
2022/06/25 07:10:16;;;;;;;7.00;4.15;;;23.40;92.20;;;;;;5111268;28;20031;-56
2022/06/25 07:12:42;;;;;;;7.82;3.63;;;23.40;92.00;;;;;;5092745;28;20030;-56
2022/06/25 07:15:08;;;;;;;9.40;3.65;;;23.40;91.20;;;;;;5111005;28;20055;-57
2022/06/25 07:17:33;;;;;;;5.63;3.83;;;23.40;91.30;;;;;;5111216;28;20019;-55
2022/06/25 07:19:59;;;;;;;7.10;4.30;;;23.40;92.30;;;;;;5111080;28;20107;-57
2022/06/25 07:22:25;;;;;;;7.38;3.85;;;23.40;92.80;;;;;;5092522;28;20028;-57
2022/06/25 07:24:51;;;;;;;9.98;4.78;;;23.50;92.30;;;;;;5110554;28;20032;-54
2022/06/25 07:27:21;;;;;;;12.68;5.50;;;23.50;93.00;;;;;;5092213;28;20032;-55
2022/06/25 07:29:47;;;;;;;7.90;4.60;;;23.60;92.80;;;;;;5092147;28;20036;-56
2022/06/25 07:32:12;;;;;;;9.80;4.28;;;23.70;94.30;;;;;;5078614;28;20041;-57
2022/06/25 07:34:38;;;;;;;7.20;4.22;;;23.70;92.10;;;;;;5026821;28;20529;-55
2022/06/25 07:37:04;;;;;;;9.02;3.42;;;23.70;92.20;;;;;;5027045;28;20075;-56
2022/06/25 07:39:30;;;;;;;6.95;4.07;;;23.80;92.00;;;;;;5057269;28;20031;-56
2022/06/25 07:41:55;;;;;;;14.45;4.68;;;23.90;92.80;;;;;;5073457;28;20055;-55
2022/06/25 07:44:22;;;;;;;7.70;3.70;;;24.00;92.40;;;;;;5066125;28;20142;-55
2022/06/25 07:46:48;;;;;;;5.57;3.20;;;24.00;88.60;;;;;;5073356;28;20022;-56
2022/06/25 07:49:13;;;;;;;7.68;4.20;;;24.20;91.20;;;;;;5071938;28;20033;-56
2022/06/25 07:51:59;;;;;;;6.60;3.25;;;24.20;90.10;;;;;;5066934;28;20036;-55
2022/06/25 07:54:27;;;;;;;5.72;2.05;;;24.40;85.70;;;;;;5094175;27;20478;-56
2022/06/25 07:56:53;;;;;;;8.15;2.53;;;24.40;78.10;;;;;;5113530;27;20029;-56
2022/06/25 07:59:19;;;;;;;4.20;1.77;;;24.50;79.10;;;;;;5050372;28;20021;-56
2022/06/25 08:01:45;;;;;;;8.25;2.30;;;24.50;78.30;;;;;;5081802;27;20031;-56
2022/06/25 08:04:11;;;;;;;3.80;2.33;;;24.50;77.00;;;;;;5115530;27;20035;-56
2022/06/25 08:06:38;;;;;;;7.53;2.42;;;24.50;77.30;;;;;;5053583;28;20059;-57
2022/06/25 08:09:05;;;;;;;5.35;2.58;;;24.50;78.10;;;;;;5030450;28;20033;-59
2022/06/25 08:11:31;;;;;;;8.68;2.60;;;24.70;78.90;;;;;;5081718;28;20618;-58
2022/06/25 08:13:57;;;;;;;8.07;2.67;;;24.80;78.30;;;;;;5098043;28;20102;-58
2022/06/25 08:16:25;;;;;;;5.15;2.35;;;24.80;77.30;;;;;;5030640;28;20162;-59
2022/06/25 08:18:52;;;;;;;3.95;2.60;;;24.90;75.00;;;;;;5030849;28;20033;-59
2022/06/25 08:21:18;;;;;;;4.20;2.42;;;25.00;74.40;;;;;;5030872;28;20025;-58
2022/06/25 08:23:43;;;;;;;5.70;2.75;;;25.00;76.60;;;;;;5030869;28;20057;-59
2022/06/25 08:26:09;;;;;;;4.93;2.30;;;25.00;76.10;;;;;;5030628;28;20149;-58
2022/06/25 08:28:35;;;;;;;5.75;2.20;;;25.10;76.90;;;;;;5030560;28;20026;-58
2022/06/25 08:31:00;;;;;;;4.32;2.25;;;25.10;75.10;;;;;;5082194;28;20025;-61
2022/06/25 08:33:26;;;;;;;22.95;15.38;;;25.20;74.10;;;;;;5030718;28;20488;-60
2022/06/25 08:35:52;;;;;;;4.45;2.67;;;25.70;73.70;;;;;;5030418;28;20100;-62
2022/06/25 08:38:18;;;;;;;4.95;2.35;;;26.00;72.20;;;;;;5099014;28;20106;-59
2022/06/25 08:40:44;;;;;;;6.07;2.67;;;25.90;69.40;;;;;;5102893;28;20031;-58
2022/06/25 08:43:10;;;;;;;7.15;2.45;;;26.40;68.90;;;;;;5113915;28;20046;-57
2022/06/25 08:45:35;;;;;;;10.65;3.20;;;27.20;70.10;;;;;;5095593;28;20099;-57
2022/06/25 08:48:06;;;;;;;13.63;4.72;;;27.30;67.20;;;;;;5095105;28;20028;-57
2022/06/25 08:50:35;;;;;;;6.72;2.90;;;27.00;71.80;;;;;;5113336;28;20019;-58
2022/06/25 08:53:02;;;;;;;6.43;2.65;;;26.90;68.60;;;;;;5095330;27;20049;-58
2022/06/25 08:55:33;;;;;;;5.18;2.08;;;26.90;69.60;;;;;;5070391;28;20023;-58
2022/06/25 08:58:00;;;;;;;10.65;2.45;;;26.70;64.80;;;;;;5074649;28;20086;-58
2022/06/25 09:00:27;;;;;;;6.93;3.20;;;26.60;65.10;;;;;;5102901;28;20109;-58
2022/06/25 09:02:53;;;;;;;;;;;26.60;67.70;;;;;;5063997;28;20100;-58
2022/06/25 09:05:33;;;;;;;13.65;3.25;;;26.70;67.80;;;;;;5074731;28;19904;-57
2022/06/25 09:08:02;;;;;;;14.15;3.30;;;26.80;71.30;;;;;;5108532;28;20027;-58
2022/06/25 09:10:29;;;;;;;7.93;2.60;;;26.90;71.60;;;;;;5051929;28;20472;-57
2022/06/25 09:13:06;;;;;;;5.70;2.55;;;27.00;67.50;;;;;;5030002;28;20068;-58
2022/06/25 09:15:35;;;;;;;3.45;2.20;;;26.90;67.20;;;;;;5029865;28;20507;-58
2022/06/25 09:18:12;;;;;;;5.55;2.63;;;27.00;69.10;;;;;;5097914;28;20037;-58
2022/06/25 09:21:08;;;;;;;6.45;2.22;;;26.90;67.20;;;;;;5029636;28;20056;-57
2022/06/25 09:23:37;;;;;;;4.45;2.40;;;26.80;66.60;;;;;;5029825;28;20461;-57
2022/06/25 09:26:10;;;;;;;4.43;2.20;;;26.70;67.10;;;;;;5029654;28;20040;-58
2022/06/25 09:28:44;;;;;;;6.10;2.40;;;26.90;71.80;;;;;;5029776;28;20018;-58
2022/06/25 09:31:10;;;;;;;3.88;2.33;;;27.00;67.20;;;;;;5074101;28;20097;-58
2022/06/25 09:33:38;;;;;;;5.72;2.80;;;27.20;70.90;;;;;;5067598;28;20022;-58
2022/06/25 09:36:04;;;;;;;3.40;2.60;;;27.20;65.60;;;;;;5067867;28;20034;-58
2022/06/25 09:38:31;;;;;;;5.25;2.38;;;27.30;67.30;;;;;;5073967;28;20040;-58
2022/06/25 09:40:59;;;;;;;4.57;2.60;;;27.50;67.80;;;;;;5067734;28;20029;-57
2022/06/25 09:43:35;;;;;;;4.80;2.42;;;27.20;64.60;;;;;;5086094;27;20029;-57
2022/06/25 09:46:06;;;;;;;4.05;2.20;;;26.90;62.60;;;;;;5090564;27;20015;-56
2022/06/25 09:48:34;;;;;;;3.58;2.20;;;26.80;63.00;;;;;;5093114;27;20033;-57
2022/06/25 09:51:19;;;;;;;5.03;2.10;;;26.90;65.90;;;;;;5074244;27;20037;-57
2022/06/25 09:53:48;;;;;;;12.68;2.20;;;27.20;62.70;;;;;;5083899;27;20015;-57
2022/06/25 09:56:16;;;;;;;5.03;2.45;;;27.20;62.80;;;;;;5119281;27;20697;-58
2022/06/25 09:58:43;;;;;;;4.45;2.50;;;27.20;64.00;;;;;;5090093;27;20015;-58
2022/06/25 10:01:09;;;;;;;5.70;2.88;;;27.20;66.40;;;;;;5089876;27;20050;-58
2022/06/25 10:03:37;;;;;;;4.63;2.30;;;27.30;63.10;;;;;;5085302;27;20076;-58
2022/06/25 10:06:03;;;;;;;6.65;2.95;;;27.50;64.40;;;;;;5092010;27;20019;-56
2022/06/25 10:08:31;;;;;;;8.88;3.10;;;27.80;64.00;;;;;;5090834;27;20089;-57
2022/06/25 10:10:57;;;;;;;6.30;2.75;;;27.80;61.30;;;;;;5084922;27;20037;-55
2022/06/25 10:13:24;;;;;;;5.95;2.70;;;27.90;66.10;;;;;;5091996;27;20030;-56
2022/06/25 10:15:51;;;;;;;;;;;28.50;66.10;;;;;;5116672;27;20137;-56
2022/06/25 10:18:18;;;;;;;5.63;3.00;;;28.60;62.20;;;;;;5084820;27;20033;-57
2022/06/25 10:20:43;;;;;;;10.93;2.78;;;28.90;62.30;;;;;;5103337;27;20089;-56
2022/06/25 10:23:12;;;;;;;4.43;2.33;;;29.10;63.30;;;;;;5078000;27;20466;-56
2022/06/25 10:25:39;;;;;;;13.50;3.13;;;29.40;59.90;;;;;;5060219;27;20117;-57
2022/06/25 10:28:14;;;;;;;4.30;2.20;;;29.60;60.60;;;;;;5107738;27;20031;-56
2022/06/25 10:30:47;;;;;;;14.50;3.20;;;29.90;58.50;;;;;;5131774;27;20038;-56
2022/06/25 10:33:18;;;;;;;8.05;3.05;;;30.00;58.60;;;;;;5132152;27;20383;-57
2022/06/25 10:35:44;;;;;;;4.78;2.00;;;29.90;57.00;;;;;;5109091;27;20034;-56
2022/06/25 10:38:16;;;;;;;4.82;1.60;;;29.40;55.60;;;;;;5085077;28;20055;-57
2022/06/25 10:40:55;;;;;;;4.63;1.67;;;29.40;53.00;;;;;;5111847;28;20027;-56
2022/06/25 10:43:46;;;;;;;2.42;1.27;;;29.60;54.30;;;;;;5098722;28;20038;-57
2022/06/25 10:46:37;;;;;;;4.93;1.50;;;29.90;51.60;;;;;;5111611;28;20107;-56
2022/06/25 10:49:11;;;;;;;5.50;1.58;;;29.40;50.80;;;;;;5111689;28;20076;-56
2022/06/25 10:51:44;;;;;;;3.08;1.75;;;28.80;52.50;;;;;;5093221;28;20031;-56
2022/06/25 10:54:25;;;;;;;3.85;2.38;;;28.90;53.00;;;;;;5111461;28;20020;-56
2022/06/25 10:56:56;;;;;;;3.67;1.50;;;29.40;52.50;;;;;;5111247;28;20027;-55
2022/06/25 10:59:45;;;;;;;5.88;1.70;;;29.00;52.40;;;;;;5111244;28;20042;-56
2022/06/25 11:02:12;;;;;;;3.42;1.85;;;29.30;54.40;;;;;;5093226;28;20083;-57
2022/06/25 11:04:38;;;;;;;5.13;1.95;;;29.90;52.80;;;;;;5111329;28;20077;-57
2022/06/25 11:07:24;;;;;;;3.17;2.03;;;29.50;52.20;;;;;;5110910;28;20482;-57
2022/06/25 11:10:03;;;;;;;5.90;2.40;;;29.60;51.60;;;;;;5109966;28;20051;-57
2022/06/25 11:12:34;;;;;;;2.92;2.33;;;29.50;52.60;;;;;;5109167;28;20043;-56
2022/06/25 11:15:06;;;;;;;4.78;2.05;;;29.60;52.10;;;;;;5110294;28;20024;-56
2022/06/25 11:17:32;;;;;;;2.78;1.58;;;29.90;56.40;;;;;;5109566;28;20439;-56
2022/06/25 11:20:09;;;;;;;12.03;3.80;;;30.30;53.60;;;;;;5110013;28;20378;-57
2022/06/25 11:22:45;;;;;;;4.80;2.30;;;30.00;53.60;;;;;;5091329;28;20027;-57
2022/06/25 11:30:40;;;;;;;4.03;2.03;;;29.80;55.20;;;;;;5109427;28;20035;-56
2022/06/25 11:33:09;;;;;;;6.57;2.37;;;29.80;51.80;;;;;;5110600;28;20030;-57
2022/06/25 11:35:44;;;;;;;6.70;1.90;;;29.20;52.00;;;;;;5110569;28;20269;-57
2022/06/25 11:38:17;;;;;;;4.95;1.73;;;29.00;51.50;;;;;;5110287;28;20081;-57
2022/06/25 11:40:43;;;;;;;5.80;2.30;;;29.00;52.90;;;;;;5110943;28;20030;-57
2022/06/25 11:43:09;;;;;;;4.10;2.15;;;29.20;54.50;;;;;;5110986;28;20472;-57
2022/06/25 11:45:51;;;;;;;9.77;2.30;;;29.40;55.10;;;;;;5110979;28;20023;-56
2022/06/25 11:48:17;;;;;;;6.07;1.85;;;29.60;55.70;;;;;;5076053;28;20450;-56
2022/06/25 11:50:43;;;;;;;5.38;1.92;;;29.40;53.60;;;;;;5110743;28;20099;-57
2022/06/25 11:53:10;;;;;;;6.22;2.60;;;29.40;52.80;;;;;;5110879;28;20030;-57
2022/06/25 11:55:38;;;;;;;4.28;1.92;;;29.40;52.70;;;;;;5111082;28;20076;-55
2022/06/25 11:58:04;;;;;;;4.50;2.30;;;29.50;55.10;;;;;;5110878;28;20031;-57
2022/06/25 12:00:30;;;;;;;6.73;2.17;;;29.60;52.40;;;;;;5075517;28;20028;-57
2022/06/25 12:03:05;;;;;;;8.32;2.50;;;29.50;53.30;;;;;;5111059;28;20345;-57
2022/06/25 12:05:34;;;;;;;6.18;2.45;;;29.60;53.00;;;;;;5111193;28;20429;-57
2022/06/25 12:08:00;;;;;;;8.68;2.33;;;29.80;56.50;;;;;;5110691;28;20491;-58
2022/06/25 12:10:29;;;;;;;5.55;2.35;;;29.80;54.50;;;;;;5110953;28;20063;-56
2022/06/25 12:12:55;;;;;;;6.45;2.38;;;29.90;52.70;;;;;;5111062;28;20044;-58
2022/06/25 12:15:29;;;;;;;6.70;3.13;;;29.90;52.20;;;;;;5110786;28;20061;-57
2022/06/25 12:18:03;;;;;;;7.43;2.38;;;30.00;54.90;;;;;;5110645;28;20020;-56
2022/06/25 12:20:29;;;;;;;3.10;2.00;;;30.70;56.90;;;;;;5110664;28;20038;-60
2022/06/25 12:22:57;;;;;;;7.37;2.80;;;30.90;52.30;;;;;;5110597;28;20024;-58
2022/06/25 12:25:27;;;;;;;5.63;2.20;;;30.90;54.30;;;;;;5113477;28;20038;-58
2022/06/25 12:27:53;;;;;;;3.90;2.00;;;31.10;53.80;;;;;;5114214;28;20062;-57
2022/06/25 12:30:28;;;;;;;4.40;2.33;;;31.00;50.60;;;;;;5114277;28;20028;-57
2022/06/25 12:32:57;;;;;;;4.80;2.10;;;30.90;52.50;;;;;;5114035;28;20039;-58
2022/06/25 12:35:25;;;;;;;6.15;2.45;;;30.80;50.90;;;;;;5095514;28;20030;-58
2022/06/25 12:38:01;;;;;;;4.47;2.58;;;30.60;51.00;;;;;;5113773;28;20491;-58
2022/06/25 12:40:28;;;;;;;6.43;2.20;;;30.50;52.60;;;;;;5095605;28;20471;-58
2022/06/25 12:42:55;;;;;;;6.00;2.28;;;30.40;51.50;;;;;;5113887;28;20049;-58
2022/06/25 12:45:21;;;;;;;7.00;2.13;;;30.50;53.10;;;;;;5114165;28;20031;-57
2022/06/25 12:47:47;;;;;;;9.40;2.67;;;30.60;53.20;;;;;;5113932;28;20383;-57
2022/06/25 12:50:27;;;;;;;8.52;2.85;;;30.70;55.60;;;;;;5113933;28;20030;-57
2022/06/25 12:52:54;;;;;;;4.63;2.25;;;30.80;53.10;;;;;;5113688;28;20047;-57
2022/06/25 12:55:22;;;;;;;3.40;2.38;;;30.80;52.80;;;;;;5113625;28;20024;-56
2022/06/25 12:57:48;;;;;;;7.15;2.50;;;30.70;52.50;;;;;;5113875;28;20370;-56
2022/06/25 13:00:20;;;;;;;6.05;2.67;;;30.60;53.80;;;;;;5113568;28;20367;-57
2022/06/25 13:02:46;;;;;;;9.27;2.42;;;30.60;55.10;;;;;;5113559;28;20486;-56